Terminal Aerodrome Forecast
Issued by NWS Charleston, SC

Home | Current Version | Previous Version | Text Only | Print | Product List | Glossary On
Versions: 1 2 3 4 5 6 7 8 9 10 11 12 13 14 15 16 17
000
FTUS42 KCHS 290632 AAA
TAFSAV
TAF AMD
KSAV 290632Z 2907/3006 30010KT P6SM -RA BKN010 OVC015
      TEMPO 2907/2911 6SM -RA BR BKN007 OVC010
     FM291500 32010G17KT P6SM VCSH SCT008 BKN015
     FM292000 30007KT P6SM BKN035=

USA.gov is the U.S. government's official web portal to all federal, state and local government web resources and services.